Time;durP1;ratioP1;P1;durP2;ratioP2;P2;SDS_P1;SDS_P2;PMS_P1;PMS_P2;Temp;Humidity;BMP_temperature;BMP_pressure;BME280_temperature;BME280_humidity;BME280_pressure;Samples;Min_cycle;Max_cycle;Signal;HPM_P1;HPM_P2
2024/04/02 00:01:13;;;;;;;1.63;1.00;;;;;;;12.81;53.30;96496.34;5041732;28;20750;-73
2024/04/02 00:03:42;;;;;;;1.13;0.73;;;;;;;12.70;53.50;96493.19;5024834;28;20513;-73
2024/04/02 00:06:08;;;;;;;1.00;0.80;;;;;;;12.77;53.18;96498.53;5023725;28;20807;-72
2024/04/02 00:08:34;;;;;;;2.20;0.87;;;;;;;12.73;53.33;96503.31;5007929;28;20430;-71
2024/04/02 00:11:01;;;;;;;1.70;0.90;;;;;;;12.78;53.40;96504.59;5040373;28;20183;-71
2024/04/02 00:13:27;;;;;;;1.00;0.73;;;;;;;12.68;53.39;96508.31;5040410;28;20512;-72
2024/04/02 00:15:52;;;;;;;1.53;0.80;;;;;;;12.28;53.93;96511.22;5038258;28;20568;-71
2024/04/02 00:18:18;;;;;;;1.33;0.80;;;;;;;12.44;54.03;96509.41;5027989;28;20529;-72
2024/04/02 00:20:44;;;;;;;1.03;0.90;;;;;;;12.50;54.06;96519.19;5022885;28;20215;-72
2024/04/02 00:23:09;;;;;;;0.90;0.70;;;;;;;12.49;53.68;96520.19;5032274;28;20187;-72
2024/04/02 00:25:36;;;;;;;0.90;0.70;;;;;;;12.50;53.84;96526.25;5025728;28;20181;-72
2024/04/02 00:28:02;;;;;;;1.00;0.80;;;;;;;12.53;53.67;96533.78;5030010;28;20593;-72
2024/04/02 00:30:28;;;;;;;1.10;0.80;;;;;;;12.53;53.64;96533.78;5020196;28;20422;-72
2024/04/02 00:32:55;;;;;;;1.07;0.80;;;;;;;12.58;53.78;96542.75;5030442;28;20475;-73
2024/04/02 00:35:21;;;;;;;1.30;0.73;;;;;;;12.54;53.57;96545.94;5023428;28;20455;-70
2024/04/02 00:37:47;;;;;;;1.00;0.70;;;;;;;12.45;53.67;96537.31;5032411;28;20464;-72
2024/04/02 00:40:13;;;;;;;1.47;0.80;;;;;;;12.51;53.56;96541.88;5023918;28;20188;-72
2024/04/02 00:42:39;;;;;;;1.73;0.90;;;;;;;12.51;54.10;96543.66;5031456;28;20429;-73
2024/04/02 00:45:04;;;;;;;1.77;0.97;;;;;;;12.43;53.75;96548.00;5025021;28;20180;-72
2024/04/02 00:47:30;;;;;;;1.30;0.90;;;;;;;12.41;53.60;96551.81;5031884;28;20214;-72
2024/04/02 00:49:56;;;;;;;1.70;0.90;;;;;;;12.54;53.59;96556.44;5039882;28;20239;-72
2024/04/02 00:52:22;;;;;;;1.10;0.83;;;;;;;12.60;53.22;96555.75;5024204;28;20289;-71
2024/04/02 00:54:47;;;;;;;1.00;0.80;;;;;;;12.42;53.21;96567.41;4999328;28;20502;-71
2024/04/02 00:57:13;;;;;;;2.27;0.80;;;;;;;12.33;53.45;96565.84;5025294;28;20211;-71
2024/04/02 00:59:39;;;;;;;1.40;0.93;;;;;;;12.31;53.41;96567.00;5025122;28;20191;-73
2024/04/02 01:02:07;;;;;;;4.17;1.17;;;;;;;12.40;53.31;96568.59;5037345;28;20322;-72
2024/04/02 01:04:34;;;;;;;1.30;0.80;;;;;;;12.43;53.66;96568.22;5025977;28;22099;-72
2024/04/02 01:07:00;;;;;;;1.07;0.83;;;;;;;12.46;53.40;96580.19;5033741;28;20441;-69
2024/04/02 01:09:26;;;;;;;0.97;0.80;;;;;;;12.52;53.16;96579.47;5047645;28;20476;-72
2024/04/02 01:11:52;;;;;;;1.10;0.80;;;;;;;12.46;52.82;96578.38;5031790;28;20430;-72
2024/04/02 01:14:17;;;;;;;1.00;0.77;;;;;;;12.48;53.37;96583.44;4988864;28;20200;-70
2024/04/02 01:16:45;;;;;;;3.53;0.80;;;;;;;12.46;53.15;96586.25;5037524;28;21015;-72
2024/04/02 01:19:11;;;;;;;5.10;0.80;;;;;;;12.45;52.82;96589.88;5037349;28;20538;-72
2024/04/02 01:21:36;;;;;;;1.10;0.80;;;;;;;12.51;53.45;96588.34;5024801;28;20471;-73
2024/04/02 01:24:02;;;;;;;1.00;0.90;;;;;;;12.54;52.79;96596.66;5043489;28;20266;-72
2024/04/02 01:26:28;;;;;;;1.87;0.90;;;;;;;12.45;52.88;96595.13;5024535;28;20206;-72
2024/04/02 01:29:03;;;;;;;2.90;0.90;;;;;;;12.39;52.89;96591.41;5030012;28;20460;-72
2024/04/02 01:31:30;;;;;;;4.20;0.90;;;;;;;12.38;53.01;96588.97;5036087;28;20191;-71
2024/04/02 01:33:56;;;;;;;2.50;1.20;;;;;;;12.36;52.99;96586.50;5029942;28;20992;-72
2024/04/02 01:36:21;;;;;;;1.00;0.90;;;;;;;12.39;53.18;96586.16;5041685;28;20462;-70
2024/04/02 01:38:46;;;;;;;1.83;0.90;;;;;;;12.34;53.20;96603.44;5028700;28;20191;-71
2024/04/02 01:41:12;;;;;;;1.33;0.80;;;;;;;12.32;53.36;96611.50;5035756;28;20214;-72
2024/04/02 01:43:38;;;;;;;0.90;0.70;;;;;;;12.42;52.98;96606.81;5034111;28;20242;-71
2024/04/02 01:46:04;;;;;;;0.90;0.60;;;;;;;12.44;53.35;96609.25;5032106;28;20204;-72
2024/04/02 01:48:29;;;;;;;1.43;0.70;;;;;;;12.32;53.21;96606.25;5032033;28;20245;-72
2024/04/02 01:50:55;;;;;;;1.20;0.77;;;;;;;12.38;53.14;96608.16;5042287;28;20194;-72
2024/04/02 01:53:20;;;;;;;2.20;0.80;;;;;;;12.36;53.05;96604.91;5040214;28;20195;-72
2024/04/02 01:55:46;;;;;;;1.00;0.70;;;;;;;12.38;53.06;96610.78;5029589;28;20210;-71
2024/04/02 01:58:11;;;;;;;1.30;0.70;;;;;;;12.33;52.94;96618.41;5033035;28;20765;-71
2024/04/02 02:00:37;;;;;;;1.00;0.80;;;;;;;12.38;53.04;96626.56;5047395;28;20256;-74
2024/04/02 02:03:03;;;;;;;0.90;0.67;;;;;;;12.31;52.98;96625.66;5026444;28;20748;-71
2024/04/02 02:05:29;;;;;;;1.03;0.70;;;;;;;12.33;52.57;96621.03;5029508;28;20275;-70
2024/04/02 02:07:55;;;;;;;1.20;0.80;;;;;;;12.37;52.75;96624.91;5030313;28;20548;-71
2024/04/02 02:10:20;;;;;;;1.17;0.80;;;;;;;12.37;52.74;96630.19;5034596;28;20270;-73
2024/04/02 02:12:46;;;;;;;1.10;1.00;;;;;;;12.26;53.23;96633.22;5034073;28;20191;-72
2024/04/02 02:15:11;;;;;;;1.43;1.00;;;;;;;12.27;53.54;96630.44;5056405;28;20207;-72
2024/04/02 02:17:36;;;;;;;1.00;0.70;;;;;;;12.33;53.05;96633.34;5064624;28;20246;-70
2024/04/02 02:20:04;;;;;;;2.60;0.80;;;;;;;12.36;53.11;96639.06;5061699;28;20205;-71
2024/04/02 02:22:30;;;;;;;0.90;0.70;;;;;;;12.33;53.58;96634.19;5055094;28;20198;-72
2024/04/02 02:24:55;;;;;;;1.23;0.80;;;;;;;12.36;52.98;96635.63;5047256;28;20430;-71
2024/04/02 02:27:20;;;;;;;1.87;0.87;;;;;;;12.35;53.45;96634.78;5062848;28;20218;-71
2024/04/02 02:29:46;;;;;;;1.20;0.90;;;;;;;12.38;52.93;96637.06;5050198;28;20191;-70
2024/04/02 02:32:11;;;;;;;1.40;0.80;;;;;;;12.38;53.23;96644.16;5061477;28;20636;-74
2024/04/02 02:34:37;;;;;;;1.00;0.70;;;;;;;12.40;53.17;96647.41;5057996;28;20234;-74
2024/04/02 02:37:02;;;;;;;1.00;0.80;;;;;;;12.39;53.34;96641.34;5052123;28;20233;-74
2024/04/02 02:39:28;;;;;;;0.90;0.70;;;;;;;12.42;53.59;96648.88;5048405;28;20187;-75
2024/04/02 02:41:53;;;;;;;1.10;0.87;;;;;;;12.37;53.51;96647.78;5049710;28;20180;-73
2024/04/02 02:44:19;;;;;;;1.53;0.70;;;;;;;12.31;53.14;96656.34;5051030;28;20279;-73
2024/04/02 02:46:44;;;;;;;1.10;0.77;;;;;;;12.26;53.78;96657.72;5046740;28;20245;-71
2024/04/02 02:49:09;;;;;;;4.63;0.80;;;;;;;12.20;53.62;96660.22;5040158;28;20248;-71
2024/04/02 02:51:35;;;;;;;1.00;0.70;;;;;;;12.17;54.10;96661.38;5040845;28;20198;-72
2024/04/02 02:54:00;;;;;;;1.10;0.70;;;;;;;12.19;53.91;96669.09;5031621;28;20232;-71
2024/04/02 02:56:26;;;;;;;1.50;0.70;;;;;;;12.22;53.46;96660.88;5034287;28;20214;-73
2024/04/02 02:58:52;;;;;;;1.27;0.80;;;;;;;12.22;53.87;96663.50;5033727;28;20726;-72
2024/04/02 03:01:17;;;;;;;0.93;0.70;;;;;;;11.93;54.20;96664.97;5017938;28;20540;-73
2024/04/02 03:03:47;;;;;;;6.40;0.80;;;;;;;12.11;53.57;96664.72;5035142;28;20192;-72
2024/04/02 03:06:12;;;;;;;0.90;0.70;;;;;;;12.19;53.72;96667.28;5042392;28;20290;-72
2024/04/02 03:08:38;;;;;;;1.30;0.80;;;;;;;12.09;53.76;96675.41;5041195;28;20797;-71
2024/04/02 03:11:05;;;;;;;0.90;0.70;;;;;;;12.22;53.62;96677.44;5019671;28;20191;-72
2024/04/02 03:13:31;;;;;;;1.40;0.80;;;;;;;12.28;53.38;96675.91;5021422;28;20206;-73
2024/04/02 03:15:57;;;;;;;1.30;0.70;;;;;;;12.30;53.46;96676.56;5039948;28;20538;-72
2024/04/02 03:18:23;;;;;;;0.90;0.70;;;;;;;12.19;53.48;96687.47;5023957;28;20468;-72
2024/04/02 03:20:48;;;;;;;1.40;0.70;;;;;;;12.31;53.02;96674.72;5035110;28;20246;-72
2024/04/02 03:23:16;;;;;;;2.03;0.90;;;;;;;12.29;52.84;96675.72;5031642;28;20187;-72
2024/04/02 03:25:41;;;;;;;1.03;0.70;;;;;;;12.20;53.23;96682.03;4989422;28;20196;-75
2024/04/02 03:28:07;;;;;;;1.50;0.70;;;;;;;12.21;53.55;96683.69;5027484;28;20457;-72
2024/04/02 03:30:33;;;;;;;1.10;0.70;;;;;;;12.18;53.10;96689.28;5026070;28;20188;-72
2024/04/02 03:32:58;;;;;;;1.73;0.67;;;;;;;12.04;53.16;96695.28;5029959;28;20554;-72
2024/04/02 03:35:24;;;;;;;1.27;0.90;;;;;;;12.18;53.48;96693.72;5033716;28;20235;-71
2024/04/02 03:37:49;;;;;;;1.63;0.70;;;;;;;12.14;53.15;96691.44;5026978;28;20212;-72
2024/04/02 03:40:15;;;;;;;0.80;0.50;;;;;;;12.25;52.79;96698.09;5032748;28;20673;-71
2024/04/02 03:42:40;;;;;;;0.90;0.70;;;;;;;12.24;52.80;96704.34;5034122;28;20195;-74
2024/04/02 03:45:08;;;;;;;2.83;0.80;;;;;;;12.19;53.00;96700.63;5040594;28;20550;-74
2024/04/02 03:47:33;;;;;;;1.10;0.80;;;;;;;12.16;53.25;96704.38;5035310;28;20587;-72
2024/04/02 03:49:58;;;;;;;0.87;0.60;;;;;;;12.12;53.09;96703.94;5027901;28;20525;-74
2024/04/02 03:52:24;;;;;;;0.90;0.70;;;;;;;12.09;53.32;96699.03;5038064;28;20183;-72
2024/04/02 03:54:49;;;;;;;0.87;0.60;;;;;;;12.21;53.05;96709.16;5034929;28;20218;-71
2024/04/02 03:57:15;;;;;;;4.30;0.77;;;;;;;12.28;52.50;96710.91;5033214;28;20321;-73
2024/04/02 03:59:40;;;;;;;1.10;0.90;;;;;;;12.31;52.31;96709.72;5035404;28;20199;-71
2024/04/02 04:02:06;;;;;;;0.90;0.73;;;;;;;12.26;52.83;96712.03;5030428;28;20656;-72
2024/04/02 04:04:31;;;;;;;1.93;0.70;;;;;;;12.21;52.69;96719.66;5027458;28;20195;-72
2024/04/02 04:06:57;;;;;;;1.73;0.80;;;;;;;12.25;53.19;96718.28;5032636;28;20207;-70
2024/04/02 04:09:25;;;;;;;1.20;0.70;;;;;;;12.25;52.66;96720.91;5044167;28;20270;-72
2024/04/02 04:11:51;;;;;;;2.40;0.90;;;;;;;12.25;52.92;96721.75;5034160;28;20194;-71
2024/04/02 04:14:16;;;;;;;1.20;0.70;;;;;;;12.17;52.76;96727.03;5038755;28;20502;-72
2024/04/02 04:16:42;;;;;;;1.90;1.00;;;;;;;12.18;52.72;96728.69;5033967;28;20628;-73
2024/04/02 04:19:08;;;;;;;1.33;0.80;;;;;;;12.09;53.04;96735.81;5031366;28;20199;-72
2024/04/02 04:21:33;;;;;;;1.90;0.90;;;;;;;12.06;52.69;96736.16;5040541;28;20218;-72
2024/04/02 04:23:58;;;;;;;0.90;0.70;;;;;;;12.05;53.08;96737.13;5023167;28;20542;-72
2024/04/02 04:26:24;;;;;;;1.30;0.77;;;;;;;12.06;53.15;96741.41;5027931;28;20282;-71
2024/04/02 04:28:49;;;;;;;1.00;0.80;;;;;;;12.13;53.16;96744.16;5030993;28;20314;-72
2024/04/02 04:31:15;;;;;;;1.10;0.67;;;;;;;11.90;53.08;96754.59;5036494;28;20195;-71
2024/04/02 04:33:40;;;;;;;2.50;0.70;;;;;;;11.94;53.23;96751.44;5033031;28;20597;-72
2024/04/02 04:36:06;;;;;;;0.87;0.60;;;;;;;12.04;53.17;96756.50;5017010;28;20216;-70
2024/04/02 04:38:31;;;;;;;3.00;0.70;;;;;;;12.03;53.06;96749.63;5031697;28;20652;-72
2024/04/02 04:40:57;;;;;;;1.20;1.00;;;;;;;12.02;52.93;96763.75;5038372;28;20625;-72
2024/04/02 04:43:23;;;;;;;1.60;0.70;;;;;;;11.97;53.23;96768.69;5028989;28;20187;-72
2024/04/02 04:45:56;;;;;;;2.03;0.90;;;;;;;11.99;53.29;96769.34;5046397;28;20186;-71
2024/04/02 04:48:22;;;;;;;0.90;0.63;;;;;;;12.00;53.05;96770.97;5031438;28;20210;-71
2024/04/02 04:50:56;;;;;;;1.00;0.70;;;;;;;11.92;52.92;96774.41;5041845;28;20492;-72
2024/04/02 04:53:22;;;;;;;1.20;0.70;;;;;;;11.95;53.14;96773.28;5029545;28;20429;-72
2024/04/02 04:55:47;;;;;;;1.10;0.70;;;;;;;11.98;53.22;96784.28;5034748;28;20526;-71
2024/04/02 04:58:13;;;;;;;1.87;0.60;;;;;;;12.01;52.71;96792.81;5038676;28;20194;-73
2024/04/02 05:00:38;;;;;;;1.57;0.70;;;;;;;12.07;52.78;96790.31;5027162;28;20246;-73
2024/04/02 05:03:05;;;;;;;1.10;0.70;;;;;;;12.13;53.16;96792.25;5041723;28;20621;-74
2024/04/02 05:05:31;;;;;;;2.73;1.30;;;;;;;12.11;52.70;96791.59;5028718;28;20194;-73
2024/04/02 05:08:14;;;;;;;0.90;0.70;;;;;;;12.12;53.08;96795.84;5036409;28;20453;-75
2024/04/02 05:10:39;;;;;;;2.40;0.80;;;;;;;12.10;52.77;96797.84;5021919;28;20279;-72
2024/04/02 05:13:06;;;;;;;0.97;0.80;;;;;;;12.14;52.70;96800.97;5043211;28;20990;-73
2024/04/02 05:15:32;;;;;;;1.20;0.80;;;;;;;11.69;53.36;96795.38;5033932;28;20217;-72
2024/04/02 05:17:57;;;;;;;1.60;0.70;;;;;;;11.91;53.10;96804.28;5040057;28;20449;-72
2024/04/02 05:20:23;;;;;;;4.90;0.80;;;;;;;11.93;53.27;96814.66;5034014;28;20246;-74
2024/04/02 05:22:48;;;;;;;4.20;0.87;;;;;;;11.79;53.78;96817.00;5029124;28;20198;-74
2024/04/02 05:25:14;;;;;;;1.20;0.70;;;;;;;12.00;53.05;96818.25;5034257;28;20191;-74
2024/04/02 05:27:40;;;;;;;2.60;0.73;;;;;;;11.98;53.62;96830.72;5026789;28;20337;-72
2024/04/02 05:30:06;;;;;;;1.30;0.80;;;;;;;11.82;53.26;96821.06;5036595;28;20196;-71
2024/04/02 05:32:31;;;;;;;1.70;1.10;;;;;;;11.88;53.60;96827.44;5031872;28;20520;-71
2024/04/02 05:34:57;;;;;;;3.20;1.33;;;;;;;11.98;53.30;96833.34;5026719;28;20467;-73
2024/04/02 05:37:22;;;;;;;1.03;0.90;;;;;;;12.06;53.09;96825.47;5022988;28;20249;-72
2024/04/02 05:39:48;;;;;;;1.70;0.87;;;;;;;12.11;53.09;96838.88;5026417;28;20223;-71
2024/04/02 05:42:15;;;;;;;1.87;1.00;;;;;;;11.85;53.45;96826.00;5027990;28;20192;-73
2024/04/02 05:44:41;;;;;;;3.43;0.87;;;;;;;12.07;53.33;96839.41;5027002;28;20431;-72
2024/04/02 05:47:06;;;;;;;1.37;0.90;;;;;;;12.15;53.26;96847.25;5029468;28;20549;-70
2024/04/02 05:49:32;;;;;;;2.23;0.90;;;;;;;12.26;53.16;96846.88;5027685;28;20441;-72
2024/04/02 05:51:57;;;;;;;1.20;0.77;;;;;;;12.18;53.48;96836.38;5030266;28;20200;-72
2024/04/02 05:54:23;;;;;;;2.70;0.70;;;;;;;12.24;52.90;96842.75;5027356;28;20262;-73
2024/04/02 05:56:48;;;;;;;1.20;0.80;;;;;;;12.13;53.31;96850.03;5034299;28;20301;-72
2024/04/02 05:59:14;;;;;;;1.23;0.63;;;;;;;12.36;53.06;96844.00;5034076;28;20195;-70
2024/04/02 06:01:39;;;;;;;1.40;0.80;;;;;;;12.55;52.81;96852.47;5024627;28;20235;-72
2024/04/02 06:04:04;;;;;;;1.77;0.80;;;;;;;12.62;52.72;96852.59;5030872;28;20267;-73
2024/04/02 06:06:31;;;;;;;1.50;0.80;;;;;;;12.75;52.40;96853.63;5035383;28;20267;-71
2024/04/02 06:08:56;;;;;;;1.60;0.70;;;;;;;12.53;52.38;96867.59;5030853;28;20196;-72
2024/04/02 06:11:21;;;;;;;2.10;1.00;;;;;;;12.75;52.27;96852.84;5029459;28;20536;-71
2024/04/02 06:13:47;;;;;;;1.83;1.03;;;;;;;13.10;51.86;96852.44;5032430;28;20222;-72
2024/04/02 06:16:12;;;;;;;1.47;0.90;;;;;;;13.15;51.55;96857.97;5029691;28;20252;-71
2024/04/02 06:18:38;;;;;;;1.00;0.70;;;;;;;13.25;51.43;96869.06;5032943;28;20931;-71
2024/04/02 06:21:03;;;;;;;1.93;0.70;;;;;;;13.46;51.07;96867.59;5024696;28;20915;-71
2024/04/02 06:23:29;;;;;;;2.23;0.80;;;;;;;13.56;50.36;96889.22;5038213;28;20249;-71
2024/04/02 06:25:54;;;;;;;1.00;0.70;;;;;;;13.54;50.36;96882.50;5030475;28;20267;-72
2024/04/02 06:28:20;;;;;;;3.33;0.67;;;;;;;13.50;50.63;96885.50;5029191;28;20204;-73
2024/04/02 06:30:45;;;;;;;0.83;0.60;;;;;;;13.32;51.42;96890.22;5030451;28;20195;-73
2024/04/02 06:33:11;;;;;;;1.83;0.70;;;;;;;13.49;51.29;96896.19;5029959;28;20679;-72
2024/04/02 06:35:36;;;;;;;1.20;0.57;;;;;;;13.40;51.83;96897.25;5029639;28;20219;-72
2024/04/02 06:38:02;;;;;;;0.97;0.60;;;;;;;13.41;52.07;96902.38;5033916;28;20767;-72
2024/04/02 06:40:27;;;;;;;0.90;0.60;;;;;;;13.12;52.33;96903.03;5041330;28;20718;-70
2024/04/02 06:42:53;;;;;;;1.00;0.60;;;;;;;13.08;52.52;96915.72;5030585;28;20280;-70
2024/04/02 06:45:18;;;;;;;1.00;0.70;;;;;;;13.13;52.94;96909.94;5031102;28;20693;-72
2024/04/02 06:47:43;;;;;;;1.40;0.70;;;;;;;13.15;52.80;96913.22;5040295;28;20270;-72
2024/04/02 06:50:09;;;;;;;0.90;0.63;;;;;;;13.15;53.23;96911.41;5028024;28;20317;-73
2024/04/02 06:52:34;;;;;;;1.13;0.60;;;;;;;12.90;53.78;96919.47;5027029;28;20293;-70
2024/04/02 06:55:00;;;;;;;1.00;0.53;;;;;;;12.92;54.05;96915.84;5030587;28;20286;-71
2024/04/02 06:57:25;;;;;;;1.87;0.63;;;;;;;12.78;54.25;96912.13;5028810;28;20247;-71
2024/04/02 06:59:51;;;;;;;2.13;1.47;;;;;;;12.81;54.29;96896.81;5032428;28;20321;-72
2024/04/02 07:02:16;;;;;;;0.90;0.60;;;;;;;12.77;54.68;96906.06;5030901;28;20292;-72
2024/04/02 07:04:41;;;;;;;1.73;0.70;;;;;;;12.68;54.64;96905.28;5036965;28;20715;-73
2024/04/02 07:07:07;;;;;;;0.80;0.60;;;;;;;12.59;54.89;96906.34;5035523;28;20219;-72
2024/04/02 07:09:33;;;;;;;1.90;0.67;;;;;;;12.65;55.73;96905.63;5038966;28;20202;-74
2024/04/02 07:11:59;;;;;;;2.37;0.90;;;;;;;12.81;55.13;96909.97;5030247;28;20278;-73
2024/04/02 07:14:24;;;;;;;2.60;0.80;;;;;;;12.62;54.72;96905.97;5034593;28;20599;-73
2024/04/02 07:16:50;;;;;;;1.33;0.70;;;;;;;12.90;54.79;96908.13;5036078;28;20220;-72
2024/04/02 07:19:15;;;;;;;1.50;0.70;;;;;;;12.60;55.19;96913.25;5018446;28;20184;-71
2024/04/02 07:21:41;;;;;;;1.20;0.70;;;;;;;13.21;54.56;96920.41;5028411;28;20222;-70
2024/04/02 07:24:06;;;;;;;1.47;0.70;;;;;;;13.56;53.68;96912.91;5038945;28;20192;-74
2024/04/02 07:26:32;;;;;;;1.17;0.90;;;;;;;13.48;52.09;96926.16;5034423;28;20211;-73
2024/04/02 07:28:57;;;;;;;1.10;0.60;;;;;;;13.34;52.10;96912.75;5034032;28;20197;-73
2024/04/02 07:31:25;;;;;;;1.87;0.80;;;;;;;13.43;51.80;96916.16;5037084;28;20198;-74
2024/04/02 07:33:51;;;;;;;3.27;0.70;;;;;;;13.19;52.34;96927.66;5030515;28;20249;-71
2024/04/02 07:36:16;;;;;;;2.50;0.90;;;;;;;13.34;52.04;96935.59;5028728;28;20446;-72
2024/04/02 07:38:42;;;;;;;1.43;0.70;;;;;;;13.24;51.78;96935.84;5031865;28;20565;-71
2024/04/02 07:41:08;;;;;;;3.53;0.77;;;;;;;12.83;52.37;96947.44;5022241;28;20294;-72
2024/04/02 07:43:34;;;;;;;5.13;1.33;;;;;;;13.10;52.02;96949.78;5020375;28;20187;-71
2024/04/02 07:46:00;;;;;;;2.00;0.90;;;;;;;13.25;51.69;96928.78;5029794;28;20415;-72
2024/04/02 07:48:26;;;;;;;3.37;0.83;;;;;;;12.85;51.15;96953.34;5022728;28;20947;-71
2024/04/02 07:50:51;;;;;;;3.77;0.77;;;;;;;12.97;51.09;96940.66;5029362;28;20673;-72
2024/04/02 07:53:16;;;;;;;3.77;1.33;;;;;;;13.18;50.47;96947.06;5031036;28;20387;-71
2024/04/02 07:55:42;;;;;;;3.00;0.90;;;;;;;12.99;50.19;96945.72;5028377;28;20207;-72
2024/04/02 07:58:08;;;;;;;2.80;1.07;;;;;;;13.01;50.27;96952.44;5028647;28;20199;-72
2024/04/02 08:00:33;;;;;;;5.63;1.00;;;;;;;13.06;50.17;96965.91;5031878;28;20207;-72
2024/04/02 08:02:59;;;;;;;2.70;0.90;;;;;;;12.96;50.09;96964.47;5028836;28;20219;-74
2024/04/02 08:05:25;;;;;;;3.87;0.77;;;;;;;13.29;49.94;96954.56;5032493;28;20626;-73
2024/04/02 08:07:51;;;;;;;3.73;1.20;;;;;;;13.10;49.97;96949.78;5029929;28;20533;-73
2024/04/02 08:10:17;;;;;;;3.80;0.70;;;;;;;13.71;49.99;96959.53;5032187;28;20497;-73
2024/04/02 08:12:42;;;;;;;2.60;0.60;;;;;;;13.51;49.16;96973.16;5026303;28;20195;-72
2024/04/02 08:15:08;;;;;;;2.03;0.90;;;;;;;13.70;48.29;96976.34;5028705;28;20211;-72
2024/04/02 08:17:36;;;;;;;3.03;1.27;;;;;;;13.85;48.80;96973.72;5028881;28;20298;-71
2024/04/02 08:20:05;;;;;;;3.80;1.20;;;;;;;14.34;47.78;96969.78;5027339;28;20198;-72
2024/04/02 08:22:31;;;;;;;4.80;1.00;;;;;;;14.68;46.74;96978.97;5027117;28;20422;-71
2024/04/02 08:24:57;;;;;;;2.50;0.80;;;;;;;14.48;46.50;96990.06;5028987;28;20423;-73
2024/04/02 08:27:22;;;;;;;1.67;0.90;;;;;;;14.66;45.29;96992.31;5027634;28;20758;-71
2024/04/02 08:29:50;;;;;;;4.17;1.20;;;;;;;15.13;45.10;96995.50;5020300;28;20527;-70
2024/04/02 08:32:16;;;;;;;3.97;1.00;;;;;;;15.47;44.30;96993.22;5030363;28;20191;-70
2024/04/02 08:34:42;;;;;;;3.87;1.10;;;;;;;15.44;44.30;96999.72;5032020;28;20996;-72
2024/04/02 08:37:08;;;;;;;6.20;0.97;;;;;;;15.58;43.16;97005.91;5035544;28;20208;-72
2024/04/02 08:39:33;;;;;;;5.03;1.10;;;;;;;15.60;43.36;97001.28;5026875;28;20190;-71
2024/04/02 08:42:03;;;;;;;3.63;1.07;;;;;;;15.56;43.62;97007.97;5027850;28;20525;-73
2024/04/02 08:44:32;;;;;;;3.57;1.07;;;;;;;15.25;44.23;97014.34;5027023;28;20632;-72
2024/04/02 08:46:58;;;;;;;2.90;0.70;;;;;;;14.82;45.00;97016.88;5028205;28;20793;-73
2024/04/02 08:49:24;;;;;;;3.50;1.10;;;;;;;14.84;44.88;97013.06;5029300;28;20438;-72
2024/04/02 08:51:49;;;;;;;2.70;1.03;;;;;;;14.92;44.94;97016.59;5028171;28;20492;-72
2024/04/02 08:54:15;;;;;;;11.20;1.50;;;;;;;14.94;45.15;97025.94;5027682;28;20392;-73
2024/04/02 08:56:41;;;;;;;2.13;0.97;;;;;;;15.15;45.21;97027.03;5027569;28;20246;-72
2024/04/02 08:59:09;;;;;;;2.17;0.83;;;;;;;15.08;44.63;97026.94;5028815;28;20580;-73
2024/04/02 09:01:37;;;;;;;2.93;1.03;;;;;;;14.94;44.27;97040.97;5027436;28;20807;-72
2024/04/02 09:04:03;;;;;;;6.73;1.20;;;;;;;14.72;44.78;97043.56;5029595;28;20441;-73
2024/04/02 09:06:29;;;;;;;4.03;1.00;;;;;;;14.58;44.34;97038.06;5025200;28;20458;-73
2024/04/02 09:08:56;;;;;;;2.57;0.90;;;;;;;14.82;43.54;97043.25;5028030;28;20269;-72
2024/04/02 09:11:23;;;;;;;4.70;1.13;;;;;;;15.00;43.62;97040.22;5026498;28;20433;-74
2024/04/02 09:13:49;;;;;;;2.00;0.77;;;;;;;15.67;43.34;97035.69;5026012;28;20439;-73
2024/04/02 09:16:14;;;;;;;4.60;1.07;;;;;;;16.30;42.44;97035.00;5029669;28;20442;-73
2024/04/02 09:18:45;;;;;;;2.50;0.73;;;;;;;16.22;42.00;97038.59;5034443;28;20278;-73
2024/04/02 09:21:14;;;;;;;1.83;0.63;;;;;;;16.81;41.35;97030.41;5034217;28;20202;-73
2024/04/02 09:23:39;;;;;;;4.17;0.90;;;;;;;16.83;40.00;97039.78;5036918;28;20444;-73
2024/04/02 09:26:08;;;;;;;2.60;1.00;;;;;;;17.11;39.13;97027.53;5024372;28;20466;-73
2024/04/02 09:28:37;;;;;;;2.37;0.90;;;;;;;17.15;38.52;97041.97;5028325;28;20186;-72
2024/04/02 09:31:03;;;;;;;2.23;0.80;;;;;;;16.99;38.28;97022.78;5022319;28;20823;-73
2024/04/02 09:33:29;;;;;;;3.00;0.80;;;;;;;17.56;38.37;97035.78;5028500;28;20518;-72
2024/04/02 09:36:11;;;;;;;4.80;1.10;;;;;;;17.66;37.73;97025.59;5029748;28;20233;-72
2024/04/02 09:38:36;;;;;;;1.97;0.80;;;;;;;17.40;37.45;97034.31;5028232;28;20430;-73
2024/04/02 09:41:03;;;;;;;1.77;0.80;;;;;;;17.41;37.34;97021.88;5030887;28;20457;-73
2024/04/02 09:43:33;;;;;;;4.70;1.10;;;;;;;17.41;36.75;97020.06;5026493;28;20185;-72
2024/04/02 09:46:00;;;;;;;3.50;0.97;;;;;;;17.34;37.03;97020.03;5031530;28;20421;-72
2024/04/02 09:48:26;;;;;;;4.60;1.23;;;;;;;17.82;36.47;97026.22;5032722;28;20444;-73
2024/04/02 09:50:52;;;;;;;3.10;0.90;;;;;;;17.49;37.16;97011.91;5027371;28;20555;-74
2024/04/02 09:53:19;;;;;;;3.33;1.43;;;;;;;18.13;36.06;97026.66;5027139;28;20434;-70
2024/04/02 09:55:45;;;;;;;10.30;2.47;;;;;;;18.56;35.73;97019.06;5028472;28;20874;-73
2024/04/02 09:58:12;;;;;;;2.50;1.07;;;;;;;18.17;35.46;97018.09;5032744;28;20442;-73
2024/04/02 10:00:41;;;;;;;6.53;1.30;;;;;;;17.91;35.56;97019.69;5026466;28;20191;-73
2024/04/02 10:03:09;;;;;;;2.70;1.03;;;;;;;18.05;34.67;97020.56;5013741;28;20919;-73
2024/04/02 10:05:35;;;;;;;2.90;0.93;;;;;;;18.22;34.41;97020.97;5030499;28;20418;-72
2024/04/02 10:08:03;;;;;;;4.27;1.47;;;;;;;18.22;34.55;97030.72;5027757;28;20461;-74
2024/04/02 10:10:31;;;;;;;3.90;1.10;;;;;;;18.21;34.81;97016.66;5032213;28;20195;-72
2024/04/02 10:12:58;;;;;;;3.40;0.90;;;;;;;18.61;34.29;97017.63;5029621;28;20429;-73
2024/04/02 10:15:24;;;;;;;3.47;1.20;;;;;;;18.72;33.65;97009.81;5032053;28;20465;-74
2024/04/02 10:17:57;;;;;;;3.60;1.17;;;;;;;18.77;33.13;97016.34;5026676;28;20574;-73
2024/04/02 10:20:25;;;;;;;3.10;0.97;;;;;;;19.21;32.75;97011.28;5032222;28;20192;-74
2024/04/02 10:22:54;;;;;;;3.13;1.30;;;;;;;18.69;32.91;97009.44;5028042;28;20978;-72
2024/04/02 10:25:20;;;;;;;4.37;1.20;;;;;;;18.96;32.70;97014.69;5026856;28;20435;-73
2024/04/02 10:27:47;;;;;;;2.20;0.97;;;;;;;18.86;32.97;97002.63;5030363;28;20485;-72
2024/04/02 10:30:24;;;;;;;4.30;1.00;;;;;;;18.44;32.76;97017.25;5027612;28;20465;-72
2024/04/02 10:32:51;;;;;;;2.77;0.90;;;;;;;19.02;32.46;97011.19;5030925;28;20429;-74
2024/04/02 10:35:26;;;;;;;5.27;1.07;;;;;;;18.85;32.42;97016.94;5016765;28;20489;-72
2024/04/02 10:37:53;;;;;;;2.90;1.00;;;;;;;18.55;32.56;97020.06;5031557;28;20456;-74
2024/04/02 10:40:18;;;;;;;9.23;1.30;;;;;;;18.45;32.76;97025.00;5032661;28;20444;-74
2024/04/02 10:42:45;;;;;;;2.90;1.00;;;;;;;18.13;34.51;97031.97;5042113;28;20476;-74
2024/04/02 10:45:11;;;;;;;2.47;0.80;;;;;;;17.22;38.47;97048.13;5030403;28;20199;-73
2024/04/02 10:47:44;;;;;;;1.67;0.90;;;;;;;16.74;40.75;97028.56;5026750;28;20951;-73
2024/04/02 10:50:09;;;;;;;6.27;1.00;;;;;;;17.10;41.03;97021.38;5041389;28;20441;-74
2024/04/02 10:52:36;;;;;;;4.10;1.00;;;;;;;17.36;40.11;97027.78;5031562;28;20454;-72
2024/04/02 10:55:03;;;;;;;2.70;1.00;;;;;;;17.85;39.42;97027.66;5030459;28;20261;-73
2024/04/02 10:57:30;;;;;;;3.13;0.90;;;;;;;18.41;38.19;97018.47;5030419;28;20472;-73
2024/04/02 10:59:57;;;;;;;3.13;1.13;;;;;;;18.70;36.65;97019.84;5027371;28;20427;-74
2024/04/02 11:02:23;;;;;;;2.60;1.00;;;;;;;18.97;36.43;97009.16;5032931;28;20463;-73
2024/04/02 11:04:48;;;;;;;2.03;0.80;;;;;;;18.88;36.04;97008.56;5031416;28;20439;-72
2024/04/02 11:07:14;;;;;;;7.47;1.20;;;;;;;19.47;35.87;97000.53;5031978;28;20270;-73
2024/04/02 11:09:40;;;;;;;1.90;0.93;;;;;;;19.70;34.82;97003.66;5031118;28;20188;-71
2024/04/02 11:12:09;;;;;;;1.73;0.80;;;;;;;20.14;34.78;97004.53;5030051;28;20280;-72
2024/04/02 11:14:38;;;;;;;3.00;0.80;;;;;;;19.91;33.69;97013.13;5042592;28;20466;-72
2024/04/02 11:17:05;;;;;;;1.60;1.07;;;;;;;19.65;34.24;97013.06;5043692;28;20545;-73
2024/04/02 11:19:31;;;;;;;8.57;1.73;;;;;;;19.45;34.97;97007.09;5023101;28;20943;-72
2024/04/02 11:25:00;;;;;;;2.60;1.10;;;;;;;18.49;38.80;97036.84;5042429;28;20257;-74
2024/04/02 11:27:26;;;;;;;6.17;1.00;;;;;;;17.94;40.65;97040.50;5030802;28;20527;-73
2024/04/02 11:29:53;;;;;;;3.57;1.13;;;;;;;17.81;40.63;97041.34;5023852;28;20466;-72
2024/04/02 11:32:20;;;;;;;3.90;0.87;;;;;;;18.22;42.06;97036.03;5032328;28;20987;-72